sensor_id;sensor_type;location;lat;lon;timestamp;temperature;humidity
40964;DHT22;26693;51.168;4.138;2022-08-19T00:00:11;21.60;99.90
40964;DHT22;26693;51.168;4.138;2022-08-19T00:01:14;21.30;99.90
40964;DHT22;26693;51.168;4.138;2022-08-19T00:02:14;21.30;99.90
40964;DHT22;26693;51.168;4.138;2022-08-19T00:03:15;21.20;99.90
40964;DHT22;26693;51.168;4.138;2022-08-19T00:04:16;21.10;99.90
40964;DHT22;26693;51.168;4.138;2022-08-19T00:05:17;21.10;99.90
40964;DHT22;26693;51.168;4.138;2022-08-19T00:06:19;21.00;99.90
40964;DHT22;26693;51.168;4.138;2022-08-19T00:07:19;20.90;99.90
40964;DHT22;26693;51.168;4.138;2022-08-19T00:08:20;20.80;99.90
40964;DHT22;26693;51.168;4.138;2022-08-19T00:09:21;20.80;99.90
40964;DHT22;26693;51.168;4.138;2022-08-19T00:10:22;20.70;99.90
40964;DHT22;26693;51.168;4.138;2022-08-19T00:11:24;20.60;99.90
40964;DHT22;26693;51.168;4.138;2022-08-19T00:12:25;20.50;99.90
40964;DHT22;26693;51.168;4.138;2022-08-19T00:13:26;20.50;99.90
40964;DHT22;26693;51.168;4.138;2022-08-19T00:14:28;20.50;99.90
40964;DHT22;26693;51.168;4.138;2022-08-19T00:15:31;20.50;99.90
40964;DHT22;26693;51.168;4.138;2022-08-19T00:16:32;20.50;99.90
40964;DHT22;26693;51.168;4.138;2022-08-19T00:17:33;20.50;99.90
40964;DHT22;26693;51.168;4.138;2022-08-19T00:18:33;20.50;99.90
40964;DHT22;26693;51.168;4.138;2022-08-19T00:19:34;20.60;99.90
40964;DHT22;26693;51.168;4.138;2022-08-19T00:20:36;20.60;99.90
40964;DHT22;26693;51.168;4.138;2022-08-19T00:21:40;20.70;99.90
40964;DHT22;26693;51.168;4.138;2022-08-19T00:22:41;20.60;99.90
40964;DHT22;26693;51.168;4.138;2022-08-19T00:23:42;20.70;99.90
40964;DHT22;26693;51.168;4.138;2022-08-19T00:24:43;20.70;99.90
40964;DHT22;26693;51.168;4.138;2022-08-19T00:25:44;20.70;99.90
40964;DHT22;26693;51.168;4.138;2022-08-19T00:26:45;20.70;99.90
40964;DHT22;26693;51.168;4.138;2022-08-19T00:27:45;20.80;99.90
40964;DHT22;26693;51.168;4.138;2022-08-19T00:28:47;20.90;99.90
40964;DHT22;26693;51.168;4.138;2022-08-19T00:29:48;20.80;99.90
40964;DHT22;26693;51.168;4.138;2022-08-19T00:30:48;20.80;99.90
40964;DHT22;26693;51.168;4.138;2022-08-19T00:31:49;20.80;99.90
40964;DHT22;26693;51.168;4.138;2022-08-19T00:32:53;20.70;99.90
40964;DHT22;26693;51.168;4.138;2022-08-19T00:33:55;20.70;99.90
40964;DHT22;26693;51.168;4.138;2022-08-19T00:34:55;20.70;99.90
40964;DHT22;26693;51.168;4.138;2022-08-19T00:35:56;20.70;99.90
40964;DHT22;26693;51.168;4.138;2022-08-19T00:36:57;20.80;99.90
40964;DHT22;26693;51.168;4.138;2022-08-19T00:37:57;20.60;99.90
40964;DHT22;26693;51.168;4.138;2022-08-19T00:38:58;20.70;99.90
40964;DHT22;26693;51.168;4.138;2022-08-19T00:39:59;20.70;99.90
40964;DHT22;26693;51.168;4.138;2022-08-19T00:41:00;20.80;99.90
40964;DHT22;26693;51.168;4.138;2022-08-19T00:42:00;20.70;99.90
40964;DHT22;26693;51.168;4.138;2022-08-19T00:43:01;20.70;99.90
40964;DHT22;26693;51.168;4.138;2022-08-19T00:44:03;20.80;99.90
40964;DHT22;26693;51.168;4.138;2022-08-19T00:45:09;20.80;99.90
40964;DHT22;26693;51.168;4.138;2022-08-19T00:46:11;20.70;99.90
40964;DHT22;26693;51.168;4.138;2022-08-19T00:47:11;20.60;99.90
40964;DHT22;26693;51.168;4.138;2022-08-19T00:48:12;20.60;99.90
40964;DHT22;26693;51.168;4.138;2022-08-19T00:49:16;20.50;99.90
40964;DHT22;26693;51.168;4.138;2022-08-19T00:50:19;20.60;99.90
40964;DHT22;26693;51.168;4.138;2022-08-19T00:51:20;20.50;99.90
40964;DHT22;26693;51.168;4.138;2022-08-19T00:52:36;20.50;99.90
40964;DHT22;26693;51.168;4.138;2022-08-19T00:53:37;20.40;99.90
40964;DHT22;26693;51.168;4.138;2022-08-19T00:54:38;20.40;99.90
40964;DHT22;26693;51.168;4.138;2022-08-19T00:55:39;20.30;99.90
40964;DHT22;26693;51.168;4.138;2022-08-19T00:56:39;20.20;99.90
40964;DHT22;26693;51.168;4.138;2022-08-19T00:57:42;20.30;99.90
40964;DHT22;26693;51.168;4.138;2022-08-19T00:58:44;20.30;99.90
40964;DHT22;26693;51.168;4.138;2022-08-19T00:59:46;20.40;99.90
40964;DHT22;26693;51.168;4.138;2022-08-19T01:00:48;20.40;99.90
40964;DHT22;26693;51.168;4.138;2022-08-19T01:01:48;20.40;99.90
40964;DHT22;26693;51.168;4.138;2022-08-19T01:02:49;20.40;99.90
40964;DHT22;26693;51.168;4.138;2022-08-19T01:03:49;20.40;99.90
40964;DHT22;26693;51.168;4.138;2022-08-19T01:04:50;20.40;99.90
40964;DHT22;26693;51.168;4.138;2022-08-19T01:05:50;20.40;99.90
40964;DHT22;26693;51.168;4.138;2022-08-19T01:06:52;20.40;99.90
40964;DHT22;26693;51.168;4.138;2022-08-19T01:07:53;20.40;99.90
40964;DHT22;26693;51.168;4.138;2022-08-19T01:08:54;20.50;99.90
40964;DHT22;26693;51.168;4.138;2022-08-19T01:09:55;20.50;99.90
40964;DHT22;26693;51.168;4.138;2022-08-19T01:10:56;20.50;99.90
40964;DHT22;26693;51.168;4.138;2022-08-19T01:11:58;20.50;99.90
40964;DHT22;26693;51.168;4.138;2022-08-19T01:12:58;20.50;99.90
40964;DHT22;26693;51.168;4.138;2022-08-19T01:13:59;20.50;99.90
40964;DHT22;26693;51.168;4.138;2022-08-19T01:15:00;20.40;99.90
40964;DHT22;26693;51.168;4.138;2022-08-19T01:16:05;20.50;99.90
40964;DHT22;26693;51.168;4.138;2022-08-19T01:17:07;20.50;99.90
40964;DHT22;26693;51.168;4.138;2022-08-19T01:18:09;20.50;99.90
40964;DHT22;26693;51.168;4.138;2022-08-19T01:19:12;20.50;99.90
40964;DHT22;26693;51.168;4.138;2022-08-19T01:20:17;20.40;99.90
40964;DHT22;26693;51.168;4.138;2022-08-19T01:21:25;20.40;99.90
40964;DHT22;26693;51.168;4.138;2022-08-19T01:22:43;20.40;99.90
40964;DHT22;26693;51.168;4.138;2022-08-19T01:23:44;20.40;99.90
40964;DHT22;26693;51.168;4.138;2022-08-19T01:24:45;20.40;99.90
40964;DHT22;26693;51.168;4.138;2022-08-19T01:25:47;20.40;99.90
40964;DHT22;26693;51.168;4.138;2022-08-19T01:26:49;20.40;99.90
40964;DHT22;26693;51.168;4.138;2022-08-19T01:27:50;20.40;99.90
40964;DHT22;26693;51.168;4.138;2022-08-19T01:28:52;20.40;99.90
40964;DHT22;26693;51.168;4.138;2022-08-19T01:29:53;20.50;99.90
40964;DHT22;26693;51.168;4.138;2022-08-19T01:30:54;20.60;99.90
40964;DHT22;26693;51.168;4.138;2022-08-19T01:31:54;20.70;99.90
40964;DHT22;26693;51.168;4.138;2022-08-19T01:32:55;20.60;99.90
40964;DHT22;26693;51.168;4.138;2022-08-19T01:33:56;20.60;99.90
40964;DHT22;26693;51.168;4.138;2022-08-19T01:34:57;20.60;99.90
40964;DHT22;26693;51.168;4.138;2022-08-19T01:36:09;20.50;99.90
40964;DHT22;26693;51.168;4.138;2022-08-19T01:37:11;20.40;99.90
40964;DHT22;26693;51.168;4.138;2022-08-19T01:38:25;20.30;99.90
40964;DHT22;26693;51.168;4.138;2022-08-19T01:39:26;20.30;99.90
40964;DHT22;26693;51.168;4.138;2022-08-19T01:40:31;20.40;99.90
40964;DHT22;26693;51.168;4.138;2022-08-19T01:41:31;20.40;99.90
40964;DHT22;26693;51.168;4.138;2022-08-19T01:42:32;20.40;99.90
40964;DHT22;26693;51.168;4.138;2022-08-19T01:43:33;20.30;99.90
40964;DHT22;26693;51.168;4.138;2022-08-19T01:44:34;20.20;99.90
40964;DHT22;26693;51.168;4.138;2022-08-19T01:45:36;20.30;99.90
40964;DHT22;26693;51.168;4.138;2022-08-19T01:46:40;20.40;99.90
40964;DHT22;26693;51.168;4.138;2022-08-19T01:47:41;20.50;99.90
40964;DHT22;26693;51.168;4.138;2022-08-19T01:48:42;20.50;99.90
40964;DHT22;26693;51.168;4.138;2022-08-19T01:49:42;20.50;99.90
40964;DHT22;26693;51.168;4.138;2022-08-19T01:50:43;20.50;99.90
40964;DHT22;26693;51.168;4.138;2022-08-19T01:51:44;20.40;99.90
40964;DHT22;26693;51.168;4.138;2022-08-19T01:52:44;20.50;99.90
40964;DHT22;26693;51.168;4.138;2022-08-19T01:53:48;20.40;99.90
40964;DHT22;26693;51.168;4.138;2022-08-19T01:54:49;20.40;99.90
40964;DHT22;26693;51.168;4.138;2022-08-19T01:55:50;20.50;99.90
40964;DHT22;26693;51.168;4.138;2022-08-19T01:56:51;20.50;99.90
40964;DHT22;26693;51.168;4.138;2022-08-19T01:57:55;20.50;99.90
40964;DHT22;26693;51.168;4.138;2022-08-19T01:59:00;20.40;99.90
40964;DHT22;26693;51.168;4.138;2022-08-19T02:00:03;20.40;99.90
40964;DHT22;26693;51.168;4.138;2022-08-19T02:01:05;20.40;99.90
40964;DHT22;26693;51.168;4.138;2022-08-19T02:02:06;20.30;99.90
40964;DHT22;26693;51.168;4.138;2022-08-19T02:03:10;20.20;99.90
40964;DHT22;26693;51.168;4.138;2022-08-19T02:04:11;20.20;99.90
40964;DHT22;26693;51.168;4.138;2022-08-19T02:05:12;20.10;99.90
40964;DHT22;26693;51.168;4.138;2022-08-19T02:06:12;20.10;99.90
40964;DHT22;26693;51.168;4.138;2022-08-19T02:07:13;20.00;99.90
40964;DHT22;26693;51.168;4.138;2022-08-19T02:08:14;19.90;99.90
40964;DHT22;26693;51.168;4.138;2022-08-19T02:09:14;19.80;99.90
40964;DHT22;26693;51.168;4.138;2022-08-19T02:10:18;19.80;99.90
40964;DHT22;26693;51.168;4.138;2022-08-19T02:11:20;19.70;99.90
40964;DHT22;26693;51.168;4.138;2022-08-19T02:12:21;19.70;99.90
40964;DHT22;26693;51.168;4.138;2022-08-19T02:13:25;19.70;99.90
40964;DHT22;26693;51.168;4.138;2022-08-19T02:14:25;19.70;99.90
40964;DHT22;26693;51.168;4.138;2022-08-19T02:15:26;19.60;99.90
40964;DHT22;26693;51.168;4.138;2022-08-19T02:16:26;19.70;99.90
40964;DHT22;26693;51.168;4.138;2022-08-19T02:17:27;19.60;99.90
40964;DHT22;26693;51.168;4.138;2022-08-19T02:18:29;19.60;99.90
40964;DHT22;26693;51.168;4.138;2022-08-19T02:19:29;19.70;99.90
40964;DHT22;26693;51.168;4.138;2022-08-19T02:20:32;19.60;99.90
40964;DHT22;26693;51.168;4.138;2022-08-19T02:21:34;19.80;99.90
40964;DHT22;26693;51.168;4.138;2022-08-19T02:22:34;19.70;99.90
40964;DHT22;26693;51.168;4.138;2022-08-19T02:23:35;19.80;99.90
40964;DHT22;26693;51.168;4.138;2022-08-19T02:24:36;19.80;99.90
40964;DHT22;26693;51.168;4.138;2022-08-19T02:25:36;19.70;99.90
40964;DHT22;26693;51.168;4.138;2022-08-19T02:26:37;19.80;99.90
40964;DHT22;26693;51.168;4.138;2022-08-19T02:27:38;19.70;99.90
40964;DHT22;26693;51.168;4.138;2022-08-19T02:28:39;19.80;99.90
40964;DHT22;26693;51.168;4.138;2022-08-19T02:29:39;19.70;99.90
40964;DHT22;26693;51.168;4.138;2022-08-19T02:30:41;19.70;99.90
40964;DHT22;26693;51.168;4.138;2022-08-19T02:31:42;19.60;99.90
40964;DHT22;26693;51.168;4.138;2022-08-19T02:32:42;19.60;99.90
40964;DHT22;26693;51.168;4.138;2022-08-19T02:33:43;19.60;99.90
40964;DHT22;26693;51.168;4.138;2022-08-19T02:34:44;19.60;99.90
40964;DHT22;26693;51.168;4.138;2022-08-19T02:35:44;19.60;99.90
40964;DHT22;26693;51.168;4.138;2022-08-19T02:36:45;19.50;99.90
40964;DHT22;26693;51.168;4.138;2022-08-19T02:37:46;19.50;99.90
40964;DHT22;26693;51.168;4.138;2022-08-19T02:39:05;19.40;99.90
40964;DHT22;26693;51.168;4.138;2022-08-19T02:40:06;19.40;99.90
40964;DHT22;26693;51.168;4.138;2022-08-19T02:41:09;19.50;99.90
40964;DHT22;26693;51.168;4.138;2022-08-19T02:42:11;19.40;99.90
40964;DHT22;26693;51.168;4.138;2022-08-19T02:43:12;19.40;99.90
40964;DHT22;26693;51.168;4.138;2022-08-19T02:44:13;19.40;99.90
40964;DHT22;26693;51.168;4.138;2022-08-19T02:45:13;19.40;99.90
40964;DHT22;26693;51.168;4.138;2022-08-19T02:46:25;19.50;99.90
40964;DHT22;26693;51.168;4.138;2022-08-19T02:47:27;19.50;99.90
40964;DHT22;26693;51.168;4.138;2022-08-19T02:48:27;19.50;99.90
40964;DHT22;26693;51.168;4.138;2022-08-19T02:49:28;19.50;99.90
40964;DHT22;26693;51.168;4.138;2022-08-19T02:50:28;19.50;99.90
40964;DHT22;26693;51.168;4.138;2022-08-19T02:51:30;19.50;99.90
40964;DHT22;26693;51.168;4.138;2022-08-19T02:52:32;19.50;99.90
40964;DHT22;26693;51.168;4.138;2022-08-19T02:53:33;19.40;99.90
40964;DHT22;26693;51.168;4.138;2022-08-19T02:54:33;19.50;99.90
40964;DHT22;26693;51.168;4.138;2022-08-19T02:55:34;19.50;99.90
40964;DHT22;26693;51.168;4.138;2022-08-19T02:56:36;19.50;99.90
40964;DHT22;26693;51.168;4.138;2022-08-19T02:57:37;19.40;99.90
40964;DHT22;26693;51.168;4.138;2022-08-19T02:58:37;19.30;99.90
40964;DHT22;26693;51.168;4.138;2022-08-19T02:59:38;19.30;99.90
40964;DHT22;26693;51.168;4.138;2022-08-19T03:00:48;19.20;99.90
40964;DHT22;26693;51.168;4.138;2022-08-19T03:01:49;19.20;99.90
40964;DHT22;26693;51.168;4.138;2022-08-19T03:02:49;19.20;99.90
40964;DHT22;26693;51.168;4.138;2022-08-19T03:03:50;19.30;99.90
40964;DHT22;26693;51.168;4.138;2022-08-19T03:04:51;19.30;99.90
40964;DHT22;26693;51.168;4.138;2022-08-19T03:05:52;19.20;99.90
40964;DHT22;26693;51.168;4.138;2022-08-19T03:07:02;19.20;99.90
40964;DHT22;26693;51.168;4.138;2022-08-19T03:08:02;19.30;99.90
40964;DHT22;26693;51.168;4.138;2022-08-19T03:09:05;19.40;99.90
40964;DHT22;26693;51.168;4.138;2022-08-19T03:10:06;19.30;99.90
40964;DHT22;26693;51.168;4.138;2022-08-19T03:11:12;19.30;99.90
40964;DHT22;26693;51.168;4.138;2022-08-19T03:12:12;19.30;99.90
40964;DHT22;26693;51.168;4.138;2022-08-19T03:13:14;19.30;99.90
40964;DHT22;26693;51.168;4.138;2022-08-19T03:14:15;19.30;99.90
40964;DHT22;26693;51.168;4.138;2022-08-19T03:15:16;19.20;99.90
40964;DHT22;26693;51.168;4.138;2022-08-19T03:16:17;19.20;99.90
40964;DHT22;26693;51.168;4.138;2022-08-19T03:17:19;19.30;99.90
40964;DHT22;26693;51.168;4.138;2022-08-19T03:18:19;19.40;99.90
40964;DHT22;26693;51.168;4.138;2022-08-19T03:19:20;19.30;99.90
40964;DHT22;26693;51.168;4.138;2022-08-19T03:20:21;19.30;99.90
40964;DHT22;26693;51.168;4.138;2022-08-19T03:21:23;19.30;99.90
40964;DHT22;26693;51.168;4.138;2022-08-19T03:22:25;19.20;99.90
40964;DHT22;26693;51.168;4.138;2022-08-19T03:23:25;19.20;99.90
40964;DHT22;26693;51.168;4.138;2022-08-19T03:24:26;19.20;99.90
40964;DHT22;26693;51.168;4.138;2022-08-19T03:25:26;19.20;99.90
40964;DHT22;26693;51.168;4.138;2022-08-19T03:26:27;19.10;99.90
40964;DHT22;26693;51.168;4.138;2022-08-19T03:27:28;19.10;99.90
40964;DHT22;26693;51.168;4.138;2022-08-19T03:28:29;19.10;99.90
40964;DHT22;26693;51.168;4.138;2022-08-19T03:29:30;19.10;99.90
40964;DHT22;26693;51.168;4.138;2022-08-19T03:30:31;19.10;99.90
40964;DHT22;26693;51.168;4.138;2022-08-19T03:31:32;19.10;99.90
40964;DHT22;26693;51.168;4.138;2022-08-19T03:32:33;19.10;99.90
40964;DHT22;26693;51.168;4.138;2022-08-19T03:33:34;19.00;99.90
40964;DHT22;26693;51.168;4.138;2022-08-19T03:34:36;19.10;99.90
40964;DHT22;26693;51.168;4.138;2022-08-19T03:35:37;19.10;99.90
40964;DHT22;26693;51.168;4.138;2022-08-19T03:36:38;19.00;99.90
40964;DHT22;26693;51.168;4.138;2022-08-19T03:37:38;19.00;99.90
40964;DHT22;26693;51.168;4.138;2022-08-19T03:38:43;18.90;99.90
40964;DHT22;26693;51.168;4.138;2022-08-19T03:39:43;18.90;99.90
40964;DHT22;26693;51.168;4.138;2022-08-19T03:40:44;18.90;99.90
40964;DHT22;26693;51.168;4.138;2022-08-19T03:41:46;18.90;99.90
40964;DHT22;26693;51.168;4.138;2022-08-19T03:42:46;18.90;99.90
40964;DHT22;26693;51.168;4.138;2022-08-19T03:43:47;18.80;99.90
40964;DHT22;26693;51.168;4.138;2022-08-19T03:44:48;18.70;99.90
40964;DHT22;26693;51.168;4.138;2022-08-19T03:45:49;18.70;99.90
40964;DHT22;26693;51.168;4.138;2022-08-19T03:46:51;18.70;99.90
40964;DHT22;26693;51.168;4.138;2022-08-19T03:47:52;18.70;99.90
40964;DHT22;26693;51.168;4.138;2022-08-19T03:48:54;18.70;99.90
40964;DHT22;26693;51.168;4.138;2022-08-19T03:49:54;18.70;99.90
40964;DHT22;26693;51.168;4.138;2022-08-19T03:50:55;18.70;99.90
40964;DHT22;26693;51.168;4.138;2022-08-19T03:51:57;18.50;99.90
40964;DHT22;26693;51.168;4.138;2022-08-19T03:52:57;18.60;99.90
40964;DHT22;26693;51.168;4.138;2022-08-19T03:53:59;18.60;99.90
40964;DHT22;26693;51.168;4.138;2022-08-19T03:54:59;18.60;99.90
40964;DHT22;26693;51.168;4.138;2022-08-19T03:56:00;18.60;99.90
40964;DHT22;26693;51.168;4.138;2022-08-19T03:57:02;18.70;99.90
40964;DHT22;26693;51.168;4.138;2022-08-19T03:58:03;18.50;99.90
40964;DHT22;26693;51.168;4.138;2022-08-19T03:59:04;18.60;99.90
40964;DHT22;26693;51.168;4.138;2022-08-19T04:00:05;18.70;99.90
40964;DHT22;26693;51.168;4.138;2022-08-19T04:01:11;18.70;99.90
40964;DHT22;26693;51.168;4.138;2022-08-19T04:02:12;18.70;99.90
40964;DHT22;26693;51.168;4.138;2022-08-19T04:03:13;18.70;99.90
40964;DHT22;26693;51.168;4.138;2022-08-19T04:04:13;18.60;99.90
40964;DHT22;26693;51.168;4.138;2022-08-19T04:05:14;18.70;99.90
40964;DHT22;26693;51.168;4.138;2022-08-19T04:06:19;18.60;99.90
40964;DHT22;26693;51.168;4.138;2022-08-19T04:07:21;18.60;99.90
40964;DHT22;26693;51.168;4.138;2022-08-19T04:08:22;18.60;99.90
40964;DHT22;26693;51.168;4.138;2022-08-19T04:09:22;18.60;99.90
40964;DHT22;26693;51.168;4.138;2022-08-19T04:10:23;18.50;99.90
40964;DHT22;26693;51.168;4.138;2022-08-19T04:11:28;18.50;99.90
40964;DHT22;26693;51.168;4.138;2022-08-19T04:12:29;18.60;99.90
40964;DHT22;26693;51.168;4.138;2022-08-19T04:13:29;18.60;99.90
40964;DHT22;26693;51.168;4.138;2022-08-19T04:14:30;18.50;99.90
40964;DHT22;26693;51.168;4.138;2022-08-19T04:15:32;18.60;99.90
40964;DHT22;26693;51.168;4.138;2022-08-19T04:16:39;18.60;99.90
40964;DHT22;26693;51.168;4.138;2022-08-19T04:17:39;18.60;99.90
40964;DHT22;26693;51.168;4.138;2022-08-19T04:18:40;18.70;99.90
40964;DHT22;26693;51.168;4.138;2022-08-19T04:19:41;18.70;99.90
40964;DHT22;26693;51.168;4.138;2022-08-19T04:20:43;18.70;99.90
40964;DHT22;26693;51.168;4.138;2022-08-19T04:21:45;18.70;99.90
40964;DHT22;26693;51.168;4.138;2022-08-19T04:22:46;18.80;99.90
40964;DHT22;26693;51.168;4.138;2022-08-19T04:23:47;18.80;99.90
40964;DHT22;26693;51.168;4.138;2022-08-19T04:24:48;18.70;99.90
40964;DHT22;26693;51.168;4.138;2022-08-19T04:25:48;18.70;99.90
40964;DHT22;26693;51.168;4.138;2022-08-19T04:26:49;18.70;99.90
40964;DHT22;26693;51.168;4.138;2022-08-19T04:27:50;18.70;99.90
40964;DHT22;26693;51.168;4.138;2022-08-19T04:28:50;18.60;99.90
40964;DHT22;26693;51.168;4.138;2022-08-19T04:29:51;18.60;99.90
40964;DHT22;26693;51.168;4.138;2022-08-19T04:30:55;18.70;99.90
40964;DHT22;26693;51.168;4.138;2022-08-19T04:31:56;18.70;99.90
40964;DHT22;26693;51.168;4.138;2022-08-19T04:32:57;18.70;99.90
40964;DHT22;26693;51.168;4.138;2022-08-19T04:33:59;18.70;99.90
40964;DHT22;26693;51.168;4.138;2022-08-19T04:34:59;18.70;99.90
40964;DHT22;26693;51.168;4.138;2022-08-19T04:36:00;18.80;99.90
40964;DHT22;26693;51.168;4.138;2022-08-19T04:37:00;18.80;99.90
40964;DHT22;26693;51.168;4.138;2022-08-19T04:38:01;18.80;99.90
40964;DHT22;26693;51.168;4.138;2022-08-19T04:39:03;18.70;99.90
40964;DHT22;26693;51.168;4.138;2022-08-19T04:40:05;18.80;99.90
40964;DHT22;26693;51.168;4.138;2022-08-19T04:41:24;18.70;99.90
40964;DHT22;26693;51.168;4.138;2022-08-19T04:42:43;18.70;99.90
40964;DHT22;26693;51.168;4.138;2022-08-19T04:43:44;18.70;99.90
40964;DHT22;26693;51.168;4.138;2022-08-19T04:44:47;18.70;99.90
40964;DHT22;26693;51.168;4.138;2022-08-19T04:45:48;18.60;99.90
40964;DHT22;26693;51.168;4.138;2022-08-19T04:46:50;18.60;99.90
40964;DHT22;26693;51.168;4.138;2022-08-19T04:47:54;18.60;99.90
40964;DHT22;26693;51.168;4.138;2022-08-19T04:48:56;18.60;99.90
40964;DHT22;26693;51.168;4.138;2022-08-19T04:49:57;18.50;99.90
40964;DHT22;26693;51.168;4.138;2022-08-19T04:50:58;18.60;99.90
40964;DHT22;26693;51.168;4.138;2022-08-19T04:51:58;18.60;99.90
40964;DHT22;26693;51.168;4.138;2022-08-19T04:52:59;18.60;99.90
40964;DHT22;26693;51.168;4.138;2022-08-19T04:54:00;18.70;99.90
40964;DHT22;26693;51.168;4.138;2022-08-19T04:55:01;18.60;99.90
40964;DHT22;26693;51.168;4.138;2022-08-19T04:56:06;18.70;99.90
40964;DHT22;26693;51.168;4.138;2022-08-19T04:57:07;18.60;99.90
40964;DHT22;26693;51.168;4.138;2022-08-19T04:58:08;18.60;99.90
40964;DHT22;26693;51.168;4.138;2022-08-19T04:59:09;18.60;99.90
40964;DHT22;26693;51.168;4.138;2022-08-19T05:00:11;18.50;99.90
40964;DHT22;26693;51.168;4.138;2022-08-19T05:01:17;18.60;99.90
40964;DHT22;26693;51.168;4.138;2022-08-19T05:02:18;18.60;99.90
40964;DHT22;26693;51.168;4.138;2022-08-19T05:03:19;18.70;99.90
40964;DHT22;26693;51.168;4.138;2022-08-19T05:04:20;18.80;99.90
40964;DHT22;26693;51.168;4.138;2022-08-19T05:05:20;18.70;99.90
40964;DHT22;26693;51.168;4.138;2022-08-19T05:06:22;18.70;99.90
40964;DHT22;26693;51.168;4.138;2022-08-19T05:07:22;18.70;99.90
40964;DHT22;26693;51.168;4.138;2022-08-19T05:08:23;18.70;99.90
40964;DHT22;26693;51.168;4.138;2022-08-19T05:09:23;18.70;99.90
40964;DHT22;26693;51.168;4.138;2022-08-19T05:10:24;18.60;99.90
40964;DHT22;26693;51.168;4.138;2022-08-19T05:11:26;18.70;99.90
40964;DHT22;26693;51.168;4.138;2022-08-19T05:12:28;18.60;99.90
40964;DHT22;26693;51.168;4.138;2022-08-19T05:13:28;18.60;99.90
40964;DHT22;26693;51.168;4.138;2022-08-19T05:14:29;18.60;99.90
40964;DHT22;26693;51.168;4.138;2022-08-19T05:15:30;18.60;99.90
40964;DHT22;26693;51.168;4.138;2022-08-19T05:16:31;18.70;99.90
40964;DHT22;26693;51.168;4.138;2022-08-19T05:17:31;18.70;99.90
40964;DHT22;26693;51.168;4.138;2022-08-19T05:18:32;18.70;99.90
40964;DHT22;26693;51.168;4.138;2022-08-19T05:19:51;18.60;99.90
40964;DHT22;26693;51.168;4.138;2022-08-19T05:21:11;18.60;99.90
40964;DHT22;26693;51.168;4.138;2022-08-19T05:22:30;18.70;99.90
40964;DHT22;26693;51.168;4.138;2022-08-19T05:23:37;18.70;99.90
40964;DHT22;26693;51.168;4.138;2022-08-19T05:24:38;18.80;99.90
40964;DHT22;26693;51.168;4.138;2022-08-19T05:25:39;18.70;99.90
40964;DHT22;26693;51.168;4.138;2022-08-19T05:26:41;18.80;99.90
40964;DHT22;26693;51.168;4.138;2022-08-19T05:27:42;18.90;99.90
40964;DHT22;26693;51.168;4.138;2022-08-19T05:28:42;18.90;99.90
40964;DHT22;26693;51.168;4.138;2022-08-19T05:29:43;19.00;99.90
40964;DHT22;26693;51.168;4.138;2022-08-19T05:30:44;18.90;99.90
40964;DHT22;26693;51.168;4.138;2022-08-19T05:31:45;18.90;99.90
40964;DHT22;26693;51.168;4.138;2022-08-19T05:32:47;18.90;99.90
40964;DHT22;26693;51.168;4.138;2022-08-19T05:33:47;18.80;99.90
40964;DHT22;26693;51.168;4.138;2022-08-19T05:34:48;18.90;99.90
40964;DHT22;26693;51.168;4.138;2022-08-19T05:35:48;18.80;99.90
40964;DHT22;26693;51.168;4.138;2022-08-19T05:36:50;18.80;99.90
40964;DHT22;26693;51.168;4.138;2022-08-19T05:37:51;18.80;99.90
40964;DHT22;26693;51.168;4.138;2022-08-19T05:38:54;18.70;99.90
40964;DHT22;26693;51.168;4.138;2022-08-19T05:39:54;18.70;99.90
40964;DHT22;26693;51.168;4.138;2022-08-19T05:40:55;18.70;99.90
40964;DHT22;26693;51.168;4.138;2022-08-19T05:42:03;18.70;99.90
40964;DHT22;26693;51.168;4.138;2022-08-19T05:43:06;18.70;99.90
40964;DHT22;26693;51.168;4.138;2022-08-19T05:44:07;18.70;99.90
40964;DHT22;26693;51.168;4.138;2022-08-19T05:45:09;18.70;99.90
40964;DHT22;26693;51.168;4.138;2022-08-19T05:46:15;18.80;99.90
40964;DHT22;26693;51.168;4.138;2022-08-19T05:47:17;18.90;99.90
40964;DHT22;26693;51.168;4.138;2022-08-19T05:48:19;18.90;99.90
40964;DHT22;26693;51.168;4.138;2022-08-19T05:49:21;18.90;99.90
40964;DHT22;26693;51.168;4.138;2022-08-19T05:50:22;18.80;99.90
40964;DHT22;26693;51.168;4.138;2022-08-19T05:51:23;18.90;99.90
40964;DHT22;26693;51.168;4.138;2022-08-19T05:52:24;19.00;99.90
40964;DHT22;26693;51.168;4.138;2022-08-19T05:53:27;18.90;99.90
40964;DHT22;26693;51.168;4.138;2022-08-19T05:54:27;18.90;99.90
40964;DHT22;26693;51.168;4.138;2022-08-19T05:55:28;18.80;99.90
40964;DHT22;26693;51.168;4.138;2022-08-19T05:56:28;18.70;99.90
40964;DHT22;26693;51.168;4.138;2022-08-19T05:57:30;18.70;99.90
40964;DHT22;26693;51.168;4.138;2022-08-19T05:58:31;18.70;99.90
40964;DHT22;26693;51.168;4.138;2022-08-19T05:59:33;18.80;99.90
40964;DHT22;26693;51.168;4.138;2022-08-19T06:00:35;18.90;99.90
40964;DHT22;26693;51.168;4.138;2022-08-19T06:01:37;18.80;99.90
40964;DHT22;26693;51.168;4.138;2022-08-19T06:02:38;18.80;99.90
40964;DHT22;26693;51.168;4.138;2022-08-19T06:03:39;18.80;99.90
40964;DHT22;26693;51.168;4.138;2022-08-19T06:04:39;18.80;99.90
40964;DHT22;26693;51.168;4.138;2022-08-19T06:05:42;18.90;99.90
40964;DHT22;26693;51.168;4.138;2022-08-19T06:06:43;18.90;99.90
40964;DHT22;26693;51.168;4.138;2022-08-19T06:07:44;19.00;99.90
40964;DHT22;26693;51.168;4.138;2022-08-19T06:08:44;18.90;99.90
40964;DHT22;26693;51.168;4.138;2022-08-19T06:09:50;19.00;99.90
40964;DHT22;26693;51.168;4.138;2022-08-19T06:10:50;18.90;99.90
40964;DHT22;26693;51.168;4.138;2022-08-19T06:11:52;19.00;99.90
40964;DHT22;26693;51.168;4.138;2022-08-19T06:12:53;19.00;99.90
40964;DHT22;26693;51.168;4.138;2022-08-19T06:13:54;19.00;99.90
40964;DHT22;26693;51.168;4.138;2022-08-19T06:14:56;19.00;99.90
40964;DHT22;26693;51.168;4.138;2022-08-19T06:15:56;19.00;99.90
40964;DHT22;26693;51.168;4.138;2022-08-19T06:16:57;19.00;99.90
40964;DHT22;26693;51.168;4.138;2022-08-19T06:17:59;19.00;99.90
40964;DHT22;26693;51.168;4.138;2022-08-19T06:19:03;19.00;99.90
40964;DHT22;26693;51.168;4.138;2022-08-19T06:20:05;19.10;99.90
40964;DHT22;26693;51.168;4.138;2022-08-19T06:21:06;19.00;99.90
40964;DHT22;26693;51.168;4.138;2022-08-19T06:22:07;19.00;99.90
40964;DHT22;26693;51.168;4.138;2022-08-19T06:23:08;19.00;99.90
40964;DHT22;26693;51.168;4.138;2022-08-19T06:24:10;19.00;99.90
40964;DHT22;26693;51.168;4.138;2022-08-19T06:25:11;19.00;99.90
40964;DHT22;26693;51.168;4.138;2022-08-19T06:26:12;19.00;99.90
40964;DHT22;26693;51.168;4.138;2022-08-19T06:27:13;19.10;99.90
40964;DHT22;26693;51.168;4.138;2022-08-19T06:28:13;19.10;99.90
40964;DHT22;26693;51.168;4.138;2022-08-19T06:29:15;19.20;99.90
40964;DHT22;26693;51.168;4.138;2022-08-19T06:30:16;19.20;99.90